Time,TemperatureF,DewpointF,PressureIn,WindDirection,WindDirectionDegrees,WindSpeedMPH,WindSpeedGustMPH,Humidity,HourlyPrecipIn,Conditions,Clouds,dailyrainin,SoftwareType,DateUTC
2013-01-25 00:04:00,31.1,13.7,30.21,SE,132,3.0,14.0,48,0.00,,,0.00,Wunderground v.1.15,2013-01-25 06:04:00,
2013-01-25 00:10:00,31.1,14.1,30.21,East,89,3.0,3.0,49,0.00,,,0.00,Wunderground v.1.15,2013-01-25 06:10:00,
2013-01-25 00:15:00,31.0,14.0,30.21,North,351,1.0,14.0,49,0.00,,,0.00,Wunderground v.1.15,2013-01-25 06:15:00,
2013-01-25 00:25:00,31.0,14.0,30.20,East,86,2.0,14.0,49,0.00,,,0.00,Wunderground v.1.15,2013-01-25 06:25:00,
2013-01-25 00:35:00,31.0,14.0,30.20,ESE,103,1.0,14.0,49,0.00,,,0.00,Wunderground v.1.15,2013-01-25 06:35:00,
2013-01-25 00:40:00,31.0,14.0,30.19,ENE,68,1.0,1.0,49,0.00,,,0.00,Wunderground v.1.15,2013-01-25 06:40:00,
2013-01-25 00:45:00,30.9,14.0,30.19,East,99,1.0,14.0,49,0.00,,,0.00,Wunderground v.1.15,2013-01-25 06:45:00,
2013-01-25 00:55:00,30.9,14.9,30.19,ESE,105,2.0,3.0,51,0.00,,,0.00,Wunderground v.1.15,2013-01-25 06:55:00,
2013-01-25 01:04:00,30.9,15.8,30.19,ESE,104,3.0,14.0,53,0.00,,,0.00,Wunderground v.1.15,2013-01-25 07:04:00,
2013-01-25 01:09:00,30.8,16.1,30.19,SSE,159,2.0,14.0,54,0.00,,,0.00,Wunderground v.1.15,2013-01-25 07:09:00,
2013-01-25 01:15:00,30.7,16.4,30.19,ESE,114,2.0,14.0,55,0.00,,,0.00,Wunderground v.1.15,2013-01-25 07:15:00,
2013-01-25 01:25:00,30.6,17.6,30.18,East,97,3.0,14.0,58,0.00,,,0.00,Wunderground v.1.15,2013-01-25 07:25:00,
2013-01-25 01:35:00,30.5,17.9,30.19,ESE,120,3.0,14.0,59,0.00,,,0.00,Wunderground v.1.15,2013-01-25 07:35:00,
2013-01-25 01:40:00,30.4,18.2,30.19,ESE,110,2.0,14.0,60,0.00,,,0.00,Wunderground v.1.15,2013-01-25 07:40:00,
2013-01-25 01:45:00,30.4,18.5,30.18,ESE,107,2.0,14.0,61,0.00,,,0.00,Wunderground v.1.15,2013-01-25 07:45:00,
2013-01-25 01:55:00,30.3,19.2,30.18,East,101,2.0,14.0,63,0.00,,,0.00,Wunderground v.1.15,2013-01-25 07:55:00,
2013-01-25 02:00:00,30.3,19.2,30.19,ESE,102,1.0,14.0,63,0.00,,,0.00,Wunderground v.1.15,2013-01-25 08:00:00,
2013-01-25 02:10:00,30.2,19.8,30.19,East,101,2.0,2.0,65,0.00,,,0.00,Wunderground v.1.15,2013-01-25 08:10:00,
2013-01-25 02:20:00,30.1,20.1,30.19,ESE,107,1.0,14.0,66,0.00,,,0.00,Wunderground v.1.15,2013-01-25 08:20:00,
2013-01-25 02:25:00,30.1,20.5,30.19,East,93,2.0,14.0,67,0.00,,,0.00,Wunderground v.1.15,2013-01-25 08:25:00,
2013-01-25 02:30:00,30.0,20.4,30.19,East,100,2.0,14.0,67,0.00,,,0.00,Wunderground v.1.15,2013-01-25 08:30:00,
2013-01-25 02:40:00,29.9,20.3,30.18,East,88,2.0,14.0,67,0.00,,,0.00,Wunderground v.1.15,2013-01-25 08:40:00,
2013-01-25 02:49:00,29.8,20.2,30.18,ESE,113,2.0,14.0,67,0.00,,,0.00,Wunderground v.1.15,2013-01-25 08:49:00,
2013-01-25 03:00:00,29.8,20.2,30.17,ESE,111,1.0,14.0,67,0.00,,,0.00,Wunderground v.1.15,2013-01-25 09:00:00,
2013-01-25 03:10:00,29.8,20.5,30.18,SE,133,1.0,1.0,68,0.00,,,0.00,Wunderground v.1.15,2013-01-25 09:10:00,
2013-01-25 03:20:00,29.8,20.5,30.18,SE,139,0.0,14.0,68,0.00,,,0.00,Wunderground v.1.15,2013-01-25 09:20:00,
2013-01-25 03:30:00,29.8,20.9,30.18,ESE,105,0.0,14.0,69,0.00,,,0.00,Wunderground v.1.15,2013-01-25 09:30:00,
2013-01-25 03:34:00,29.8,20.9,30.18,East,101,0.0,14.0,69,0.00,,,0.00,Wunderground v.1.15,2013-01-25 09:34:00,
2013-01-25 03:40:00,29.8,20.9,30.17,ESE,110,0.0,14.0,69,0.00,,,0.00,Wunderground v.1.15,2013-01-25 09:40:00,
2013-01-25 03:50:00,29.8,21.2,30.17,ESE,122,0.0,14.0,70,0.00,,,0.00,Wunderground v.1.15,2013-01-25 09:50:00,
2013-01-25 03:55:00,29.8,21.2,30.17,SSE,149,0.0,14.0,70,0.00,,,0.00,Wunderground v.1.15,2013-01-25 09:55:00,
2013-01-25 04:05:00,29.8,21.2,30.17,SE,131,0.0,14.0,70,0.00,,,0.00,Wunderground v.1.15,2013-01-25 10:05:00,
2013-01-25 04:15:00,29.9,21.6,30.17,East,93,0.0,14.0,71,0.00,,,0.00,Wunderground v.1.15,2013-01-25 10:15:00,
2013-01-25 04:25:00,29.9,21.6,30.17,SE,125,0.0,14.0,71,0.00,,,0.00,Wunderground v.1.15,2013-01-25 10:25:00,
2013-01-25 04:35:00,29.9,21.6,30.17,South,189,0.0,14.0,71,0.00,,,0.00,Wunderground v.1.15,2013-01-25 10:35:00,
2013-01-25 04:45:00,30.0,21.7,30.17,East,101,0.0,14.0,71,0.00,,,0.00,Wunderground v.1.15,2013-01-25 10:45:00,
2013-01-25 04:54:00,30.0,22.1,30.16,ESE,105,0.0,14.0,72,0.00,,,0.00,Wunderground v.1.15,2013-01-25 10:54:00,
2013-01-25 05:00:00,30.0,22.1,30.16,ESE,117,0.0,14.0,72,0.00,,,0.00,Wunderground v.1.15,2013-01-25 11:00:00,
2013-01-25 05:10:00,30.0,22.1,30.17,ESE,120,0.0,14.0,72,0.00,,,0.00,Wunderground v.1.15,2013-01-25 11:10:00,
2013-01-25 05:15:00,30.0,22.1,30.17,SE,131,0.0,14.0,72,0.00,,,0.00,Wunderground v.1.15,2013-01-25 11:15:00,
2013-01-25 05:25:00,30.0,22.1,30.15,ESE,113,0.0,14.0,72,0.00,,,0.00,Wunderground v.1.15,2013-01-25 11:25:00,
2013-01-25 05:35:00,29.9,22.0,30.15,SE,129,1.0,14.0,72,0.00,,,0.00,Wunderground v.1.15,2013-01-25 11:35:00,
2013-01-25 05:40:00,29.8,22.2,30.15,SE,128,0.0,14.0,73,0.00,,,0.00,Wunderground v.1.15,2013-01-25 11:40:00,
2013-01-25 05:50:00,29.5,21.9,30.15,SSE,153,0.0,14.0,73,0.00,,,0.00,Wunderground v.1.15,2013-01-25 11:50:00,
2013-01-25 06:00:00,28.8,21.2,30.15,South,174,0.0,14.0,73,0.00,,,0.00,Wunderground v.1.15,2013-01-25 12:00:00,
2013-01-25 06:09:00,28.3,21.1,30.15,South,174,0.0,14.0,74,0.00,,,0.00,Wunderground v.1.15,2013-01-25 12:09:00,
2013-01-25 06:20:00,28.0,21.1,30.16,South,174,0.0,14.0,75,0.00,,,0.00,Wunderground v.1.15,2013-01-25 12:20:00,
2013-01-25 06:30:00,27.8,21.5,30.17,SSW,210,0.0,14.0,77,0.00,,,0.00,Wunderground v.1.15,2013-01-25 12:30:00,
2013-01-25 06:40:00,28.2,21.6,30.17,SSW,210,0.0,14.0,76,0.00,,,0.00,Wunderground v.1.15,2013-01-25 12:40:00,
2013-01-25 06:49:00,28.5,22.2,30.18,SSW,210,0.0,14.0,77,0.00,,,0.00,Wunderground v.1.15,2013-01-25 12:49:00,
2013-01-25 07:00:00,29.0,22.4,30.18,SSW,210,0.0,14.0,76,0.00,,,0.00,Wunderground v.1.15,2013-01-25 13:00:00,
2013-01-25 07:10:00,29.4,22.8,30.19,SSW,210,0.0,14.0,76,0.00,,,0.00,Wunderground v.1.15,2013-01-25 13:10:00,
2013-01-25 07:20:00,29.7,22.7,30.19,South,186,0.0,14.0,75,0.00,,,0.00,Wunderground v.1.15,2013-01-25 13:20:00,
2013-01-25 07:25:00,29.8,22.5,30.19,SSE,152,0.0,14.0,74,0.00,,,0.00,Wunderground v.1.15,2013-01-25 13:25:00,
2013-01-25 07:34:00,30.0,22.7,30.19,SE,138,0.0,14.0,74,0.00,,,0.00,Wunderground v.1.15,2013-01-25 13:34:00,
2013-01-25 07:39:00,30.0,22.7,30.19,ESE,103,0.0,14.0,74,0.00,,,0.00,Wunderground v.1.15,2013-01-25 13:39:00,
2013-01-25 07:45:00,30.1,22.8,30.20,ESE,123,0.0,14.0,74,0.00,,,0.00,Wunderground v.1.15,2013-01-25 13:45:00,
2013-01-25 07:50:00,30.2,22.9,30.20,ESE,122,0.0,14.0,74,0.00,,,0.00,Wunderground v.1.15,2013-01-25 13:50:00,
2013-01-25 08:00:00,30.3,23.0,30.20,SW,220,0.0,14.0,74,0.00,,,0.00,Wunderground v.1.15,2013-01-25 14:00:00,
2013-01-25 08:10:00,30.5,22.9,30.20,SE,136,0.0,14.0,73,0.00,,,0.00,Wunderground v.1.15,2013-01-25 14:10:00,
2013-01-25 08:19:00,30.8,23.2,30.21,ESE,116,0.0,14.0,73,0.00,,,0.00,Wunderground v.1.15,2013-01-25 14:19:00,
2013-01-25 08:30:00,31.1,23.1,30.20,West,274,0.0,14.0,72,0.00,,,0.00,Wunderground v.1.15,2013-01-25 14:30:00,
2013-01-25 08:40:00,31.3,23.0,30.21,SSE,152,0.0,14.0,71,0.00,,,0.00,Wunderground v.1.15,2013-01-25 14:40:00,
2013-01-25 08:50:00,31.8,23.1,30.21,SSW,200,0.0,14.0,70,0.00,,,0.00,Wunderground v.1.15,2013-01-25 14:50:00,
2013-01-25 09:00:00,33.8,24.4,30.22,SW,219,0.0,14.0,68,0.00,,,0.00,Wunderground v.1.15,2013-01-25 15:00:00,
2013-01-25 09:09:00,35.1,24.1,30.22,ESE,105,1.0,14.0,64,0.00,,,0.00,Wunderground v.1.15,2013-01-25 15:09:00,
2013-01-25 09:15:00,35.1,23.4,30.22,SSW,203,2.0,14.0,62,0.00,,,0.00,Wunderground v.1.15,2013-01-25 15:15:00,
2013-01-25 09:20:00,35.4,23.7,30.22,SSE,164,2.0,14.0,62,0.00,,,0.00,Wunderground v.1.15,2013-01-25 15:20:00,
2013-01-25 09:30:00,36.3,24.1,30.22,ESE,120,2.0,2.0,61,0.00,,,0.00,Wunderground v.1.15,2013-01-25 15:30:00,
2013-01-25 09:35:00,36.7,24.1,30.23,South,188,1.0,5.0,60,0.00,,,0.00,Wunderground v.1.15,2013-01-25 15:35:00,
2013-01-25 09:45:00,37.7,24.6,30.23,SSW,206,1.0,14.0,59,0.00,,,0.00,Wunderground v.1.15,2013-01-25 15:45:00,
2013-01-25 09:50:00,38.0,24.1,30.23,ESE,110,1.0,14.0,57,0.00,,,0.00,Wunderground v.1.15,2013-01-25 15:50:00,
2013-01-25 09:59:00,38.2,24.3,30.23,SW,231,2.0,2.0,57,0.00,,,0.00,Wunderground v.1.15,2013-01-25 15:59:00,
2013-01-25 10:05:00,38.3,24.0,30.23,SW,222,2.0,3.0,56,0.00,,,0.00,Wunderground v.1.15,2013-01-25 16:05:00,
2013-01-25 10:10:00,38.3,24.4,30.23,WSW,248,2.0,2.0,57,0.00,,,0.00,Wunderground v.1.15,2013-01-25 16:10:00,
2013-01-25 10:20:00,39.1,24.7,30.23,SW,215,2.0,2.0,56,0.00,,,0.00,Wunderground v.1.15,2013-01-25 16:20:00,
2013-01-25 10:25:00,39.7,25.3,30.22,SE,136,1.0,3.0,56,0.00,,,0.00,Wunderground v.1.15,2013-01-25 16:25:00,
2013-01-25 10:35:00,40.1,24.3,30.22,SW,226,2.0,3.0,53,0.00,,,0.00,Wunderground v.1.15,2013-01-25 16:35:00,
2013-01-25 10:40:00,40.4,24.6,30.23,East,101,2.0,14.0,53,0.00,,,0.00,Wunderground v.1.15,2013-01-25 16:40:00,
2013-01-25 10:45:00,40.2,24.0,30.22,WSW,245,2.0,14.0,52,0.00,,,0.00,Wunderground v.1.15,2013-01-25 16:45:00,
2013-01-25 10:55:00,40.8,25.0,30.23,SW,231,2.0,14.0,53,0.00,,,0.00,Wunderground v.1.15,2013-01-25 16:55:00,
2013-01-25 11:00:00,41.1,24.8,30.23,NW,321,2.0,14.0,52,0.00,,,0.00,Wunderground v.1.15,2013-01-25 17:00:00,
2013-01-25 11:05:00,41.7,24.9,30.23,ESE,110,2.0,14.0,51,0.00,,,0.00,Wunderground v.1.15,2013-01-25 17:05:00,
2013-01-25 11:15:00,41.6,24.8,30.23,SSW,210,2.0,14.0,51,0.00,,,0.00,Wunderground v.1.15,2013-01-25 17:15:00,
2013-01-25 11:25:00,41.6,24.8,30.22,South,171,2.0,14.0,51,0.00,,,0.00,Wunderground v.1.15,2013-01-25 17:25:00,
2013-01-25 11:35:00,41.9,24.1,30.23,WSW,239,2.0,3.0,49,0.00,,,0.00,Wunderground v.1.15,2013-01-25 17:35:00,
2013-01-25 11:44:00,41.7,23.9,30.22,WSW,240,3.0,14.0,49,0.00,,,0.00,Wunderground v.1.15,2013-01-25 17:44:00,
2013-01-25 11:50:00,41.5,23.7,30.22,WSW,252,2.0,14.0,49,0.00,,,0.00,Wunderground v.1.15,2013-01-25 17:50:00,
2013-01-25 12:00:00,41.3,23.6,30.22,SW,225,3.0,3.0,49,0.00,,,0.00,Wunderground v.1.15,2013-01-25 18:00:00,
2013-01-25 12:10:00,41.3,23.6,30.21,SSE,167,3.0,3.0,49,0.00,,,0.00,Wunderground v.1.15,2013-01-25 18:10:00,
2013-01-25 12:20:00,42.6,24.3,30.21,South,184,2.0,14.0,48,0.00,,,0.00,Wunderground v.1.15,2013-01-25 18:20:00,
2013-01-25 12:25:00,42.8,23.4,30.21,East,91,2.0,14.0,46,0.00,,,0.00,Wunderground v.1.15,2013-01-25 18:25:00,
2013-01-25 12:35:00,43.8,24.3,30.21,SSW,211,2.0,14.0,46,0.00,,,0.00,Wunderground v.1.15,2013-01-25 18:35:00,
2013-01-25 12:40:00,43.9,23.9,30.21,East,95,2.0,14.0,45,0.00,,,0.00,Wunderground v.1.15,2013-01-25 18:40:00,
2013-01-25 12:49:00,44.3,23.7,30.21,SE,135,2.0,14.0,44,0.00,,,0.00,Wunderground v.1.15,2013-01-25 18:49:00,
2013-01-25 12:55:00,44.7,24.1,30.21,WSW,240,2.0,14.0,44,0.00,,,0.00,Wunderground v.1.15,2013-01-25 18:55:00,
2013-01-25 13:00:00,44.5,23.4,30.21,WSW,253,2.0,2.0,43,0.00,,,0.00,Wunderground v.1.15,2013-01-25 19:00:00,
2013-01-25 13:05:00,44.3,23.2,30.20,East,94,2.0,14.0,43,0.00,,,0.00,Wunderground v.1.15,2013-01-25 19:05:00,
2013-01-25 13:10:00,44.5,23.4,30.20,SE,139,2.0,2.0,43,0.00,,,0.00,Wunderground v.1.15,2013-01-25 19:10:00,
2013-01-25 13:15:00,45.1,23.9,30.20,South,173,1.0,14.0,43,0.00,,,0.00,Wunderground v.1.15,2013-01-25 19:15:00,
2013-01-25 13:25:00,45.4,23.0,30.20,SE,136,2.0,14.0,41,0.00,,,0.00,Wunderground v.1.15,2013-01-25 19:25:00,
2013-01-25 13:35:00,46.1,23.7,30.20,SSW,207,2.0,14.0,41,0.00,,,0.00,Wunderground v.1.15,2013-01-25 19:35:00,
2013-01-25 13:50:00,46.4,22.8,30.20,NE,53,2.0,2.0,39,0.00,,,0.00,Wunderground v.1.15,2013-01-25 19:50:00,
2013-01-25 14:00:00,45.8,23.4,30.19,SSE,152,3.0,3.0,41,0.00,,,0.00,Wunderground v.1.15,2013-01-25 20:00:00,
2013-01-25 14:10:00,47.2,24.1,30.19,SSW,211,1.0,14.0,40,0.00,,,0.00,Wunderground v.1.15,2013-01-25 20:10:00,
2013-01-25 14:20:00,47.7,23.9,30.19,West,277,2.0,14.0,39,0.00,,,0.00,Wunderground v.1.15,2013-01-25 20:20:00,
2013-01-25 14:25:00,48.0,22.9,30.19,ESE,119,2.0,14.0,37,0.00,,,0.00,Wunderground v.1.15,2013-01-25 20:25:00,
2013-01-25 14:35:00,48.0,22.9,30.19,SE,138,2.0,14.0,37,0.00,,,0.00,Wunderground v.1.15,2013-01-25 20:35:00,
2013-01-25 14:45:00,47.4,23.7,30.19,North,5,2.0,14.0,39,0.00,,,0.00,Wunderground v.1.15,2013-01-25 20:45:00,
2013-01-25 14:50:00,47.5,23.1,30.19,SSE,150,2.0,2.0,38,0.00,,,0.00,Wunderground v.1.15,2013-01-25 20:50:00,
2013-01-25 14:59:00,47.2,23.5,30.19,ESE,123,1.0,1.0,39,0.00,,,0.00,Wunderground v.1.15,2013-01-25 20:59:00,
2013-01-25 15:10:00,47.5,23.1,30.18,West,271,1.0,14.0,38,0.00,,,0.00,Wunderground v.1.15,2013-01-25 21:10:00,
2013-01-25 15:20:00,47.5,23.1,30.19,SW,215,1.0,14.0,38,0.00,,,0.00,Wunderground v.1.15,2013-01-25 21:20:00,
2013-01-25 15:30:00,47.7,23.3,30.18,SE,138,1.0,14.0,38,0.00,,,0.00,Wunderground v.1.15,2013-01-25 21:30:00,
2013-01-25 15:35:00,47.8,24.0,30.18,SW,226,1.0,14.0,39,0.00,,,0.00,Wunderground v.1.15,2013-01-25 21:35:00,
2013-01-25 15:40:00,47.7,23.9,30.18,SSE,153,0.0,14.0,39,0.00,,,0.00,Wunderground v.1.15,2013-01-25 21:40:00,
2013-01-25 15:44:00,47.5,23.1,30.18,ESE,110,1.0,14.0,38,0.00,,,0.00,Wunderground v.1.15,2013-01-25 21:44:00,
2013-01-25 15:55:00,46.9,23.2,30.19,SSW,207,1.0,14.0,39,0.00,,,0.00,Wunderground v.1.15,2013-01-25 21:55:00,
2013-01-25 16:05:00,46.4,23.4,30.19,SW,221,1.0,14.0,40,0.00,,,0.00,Wunderground v.1.15,2013-01-25 22:05:00,
2013-01-25 16:15:00,46.4,23.4,30.19,ESE,122,1.0,14.0,40,0.00,,,0.00,Wunderground v.1.15,2013-01-25 22:15:00,
2013-01-25 16:24:00,46.1,23.1,30.19,ESE,111,1.0,14.0,40,0.00,,,0.00,Wunderground v.1.15,2013-01-25 22:24:00,
2013-01-25 16:30:00,46.0,23.6,30.20,ESE,108,1.0,14.0,41,0.00,,,0.00,Wunderground v.1.15,2013-01-25 22:30:00,
2013-01-25 16:40:00,45.3,23.0,30.20,SE,142,1.0,1.0,41,0.00,,,0.00,Wunderground v.1.15,2013-01-25 22:40:00,
2013-01-25 16:50:00,44.6,22.9,30.20,SW,219,1.0,1.0,42,0.00,,,0.00,Wunderground v.1.15,2013-01-25 22:50:00,
2013-01-25 16:59:00,43.9,22.8,30.20,SW,226,0.0,14.0,43,0.00,,,0.00,Wunderground v.1.15,2013-01-25 22:59:00,
2013-01-25 17:04:00,43.6,23.1,30.21,South,176,1.0,14.0,44,0.00,,,0.00,Wunderground v.1.15,2013-01-25 23:04:00,
2013-01-25 17:10:00,43.3,22.8,30.21,SW,229,1.0,14.0,44,0.00,,,0.00,Wunderground v.1.15,2013-01-25 23:10:00,
2013-01-25 17:20:00,42.6,22.7,30.20,ESE,118,0.0,14.0,45,0.00,,,0.00,Wunderground v.1.15,2013-01-25 23:20:00,
2013-01-25 17:25:00,42.2,22.9,30.20,SW,233,0.0,14.0,46,0.00,,,0.00,Wunderground v.1.15,2013-01-25 23:25:00,
2013-01-25 17:35:00,41.2,22.5,30.20,SW,233,0.0,14.0,47,0.00,,,0.00,Wunderground v.1.15,2013-01-25 23:35:00,
2013-01-25 17:44:00,40.6,22.9,30.20,West,259,0.0,14.0,49,0.00,,,0.00,Wunderground v.1.15,2013-01-25 23:44:00,
2013-01-25 17:55:00,40.0,22.8,30.21,WSW,253,0.0,14.0,50,0.00,,,0.00,Wunderground v.1.15,2013-01-25 23:55:00,
2013-01-25 18:05:00,39.5,22.8,30.21,WSW,253,0.0,14.0,51,0.00,,,0.00,Wunderground v.1.15,2013-01-26 00:05:00,
2013-01-25 18:15:00,39.3,23.1,30.21,WSW,243,0.0,14.0,52,0.00,,,0.00,Wunderground v.1.15,2013-01-26 00:15:00,
2013-01-25 18:25:00,39.0,23.3,30.21,West,260,0.0,14.0,53,0.00,,,0.00,Wunderground v.1.15,2013-01-26 00:25:00,
2013-01-25 18:35:00,38.6,23.4,30.22,WSW,257,0.0,14.0,54,0.00,,,0.00,Wunderground v.1.15,2013-01-26 00:35:00,
2013-01-25 18:40:00,38.3,23.1,30.22,WSW,257,0.0,14.0,54,0.00,,,0.00,Wunderground v.1.15,2013-01-26 00:40:00,
2013-01-25 18:50:00,37.3,23.0,30.22,WSW,245,0.0,14.0,56,0.00,,,0.00,Wunderground v.1.15,2013-01-26 00:50:00,
2013-01-25 19:00:00,36.7,22.9,30.23,WSW,245,0.0,14.0,57,0.00,,,0.00,Wunderground v.1.15,2013-01-26 01:00:00,
2013-01-25 19:05:00,36.6,22.8,30.22,SW,233,0.0,14.0,57,0.00,,,0.00,Wunderground v.1.15,2013-01-26 01:05:00,
2013-01-25 19:10:00,36.5,22.7,30.22,SSW,203,0.0,14.0,57,0.00,,,0.00,Wunderground v.1.15,2013-01-26 01:10:00,
2013-01-25 19:19:00,36.4,23.4,30.22,SW,224,0.0,14.0,59,0.00,,,0.00,Wunderground v.1.15,2013-01-26 01:19:00,
2013-01-25 19:25:00,35.9,22.5,30.22,SW,224,0.0,14.0,58,0.00,,,0.00,Wunderground v.1.15,2013-01-26 01:25:00,
2013-01-25 19:35:00,35.3,23.2,30.23,SW,236,0.0,14.0,61,0.00,,,0.00,Wunderground v.1.15,2013-01-26 01:35:00,
2013-01-25 19:40:00,35.4,23.3,30.22,SW,236,0.0,14.0,61,0.00,,,0.00,Wunderground v.1.15,2013-01-26 01:40:00,
2013-01-25 19:50:00,34.9,23.2,30.23,SW,236,0.0,14.0,62,0.00,,,0.00,Wunderground v.1.15,2013-01-26 01:50:00,
2013-01-25 20:00:00,34.4,22.7,30.23,SW,236,0.0,14.0,62,0.00,,,0.00,Wunderground v.1.15,2013-01-26 02:00:00,
2013-01-25 20:10:00,34.0,22.7,30.23,SW,236,0.0,14.0,63,0.00,,,0.00,Wunderground v.1.15,2013-01-26 02:10:00,
2013-01-25 20:20:00,33.2,22.7,30.23,SW,236,0.0,14.0,65,0.00,,,0.00,Wunderground v.1.15,2013-01-26 02:20:00,
2013-01-25 20:25:00,33.3,22.4,30.23,SW,236,0.0,14.0,64,0.00,,,0.00,Wunderground v.1.15,2013-01-26 02:25:00,
2013-01-25 20:35:00,33.4,22.9,30.23,SW,236,0.0,14.0,65,0.00,,,0.00,Wunderground v.1.15,2013-01-26 02:35:00,
2013-01-25 20:44:00,33.3,22.8,30.23,SSW,212,0.0,14.0,65,0.00,,,0.00,Wunderground v.1.15,2013-01-26 02:44:00,
2013-01-25 20:49:00,33.4,22.9,30.23,WSW,240,0.0,14.0,65,0.00,,,0.00,Wunderground v.1.15,2013-01-26 02:49:00,
2013-01-25 21:00:00,33.4,22.9,30.24,WSW,240,0.0,14.0,65,0.00,,,0.00,Wunderground v.1.15,2013-01-26 03:00:00,
2013-01-25 21:10:00,33.2,23.1,30.25,WSW,240,0.0,14.0,66,0.00,,,0.00,Wunderground v.1.15,2013-01-26 03:10:00,
2013-01-25 21:15:00,33.4,23.3,30.25,WSW,240,0.0,14.0,66,0.00,,,0.00,Wunderground v.1.15,2013-01-26 03:15:00,
2013-01-25 21:25:00,33.1,23.3,30.25,WSW,240,0.0,14.0,67,0.00,,,0.00,Wunderground v.1.15,2013-01-26 03:25:00,
2013-01-25 21:34:00,32.7,23.3,30.25,WSW,240,0.0,14.0,68,0.00,,,0.00,Wunderground v.1.15,2013-01-26 03:34:00,
2013-01-25 21:40:00,32.3,22.9,30.26,WSW,240,0.0,14.0,68,0.00,,,0.00,Wunderground v.1.15,2013-01-26 03:40:00,
2013-01-25 21:50:00,31.3,22.6,30.26,WSW,240,0.0,14.0,70,0.00,,,0.00,Wunderground v.1.15,2013-01-26 03:50:00,
2013-01-25 22:00:00,31.7,23.0,30.27,WSW,240,0.0,14.0,70,0.00,,,0.00,Wunderground v.1.15,2013-01-26 04:00:00,
2013-01-25 22:09:00,31.3,22.6,30.27,WSW,240,0.0,14.0,70,0.00,,,0.00,Wunderground v.1.15,2013-01-26 04:09:00,
2013-01-25 22:20:00,30.5,22.5,30.27,WSW,240,0.0,14.0,72,0.00,,,0.00,Wunderground v.1.15,2013-01-26 04:20:00,
2013-01-25 22:25:00,30.1,22.2,30.27,WSW,240,0.0,14.0,72,0.00,,,0.00,Wunderground v.1.15,2013-01-26 04:25:00,
2013-01-25 22:35:00,29.3,22.0,30.27,WSW,240,0.0,14.0,74,0.00,,,0.00,Wunderground v.1.15,2013-01-26 04:35:00,
2013-01-25 22:45:00,28.6,21.7,30.27,WSW,240,0.0,14.0,75,0.00,,,0.00,Wunderground v.1.15,2013-01-26 04:45:00,
2013-01-25 22:55:00,28.4,21.5,30.27,WSW,240,0.0,14.0,75,0.00,,,0.00,Wunderground v.1.15,2013-01-26 04:55:00,
2013-01-25 23:04:00,27.8,21.2,30.27,WSW,240,0.0,14.0,76,0.00,,,0.00,Wunderground v.1.15,2013-01-26 05:04:00,
2013-01-25 23:10:00,27.5,21.2,30.27,WSW,240,0.0,14.0,77,0.00,,,0.00,Wunderground v.1.15,2013-01-26 05:10:00,
2013-01-25 23:15:00,27.1,20.8,30.27,WSW,240,0.0,14.0,77,0.00,,,0.00,Wunderground v.1.15,2013-01-26 05:15:00,
2013-01-25 23:20:00,26.8,20.9,30.28,WSW,240,0.0,14.0,78,0.00,,,0.00,Wunderground v.1.15,2013-01-26 05:20:00,
2013-01-25 23:25:00,27.3,21.9,30.28,WSW,240,0.0,14.0,80,0.00,,,0.00,Wunderground v.1.15,2013-01-26 05:25:00,
2013-01-25 23:30:00,28.0,22.0,30.27,WSW,240,0.0,14.0,78,0.00,,,0.00,Wunderground v.1.15,2013-01-26 05:30:00,
2013-01-25 23:35:00,27.9,21.6,30.28,WSW,240,0.0,14.0,77,0.00,,,0.00,Wunderground v.1.15,2013-01-26 05:35:00,
2013-01-25 23:45:00,27.9,22.2,30.28,WSW,240,0.0,14.0,79,0.00,,,0.00,Wunderground v.1.15,2013-01-26 05:45:00,
2013-01-25 23:54:00,27.5,21.5,30.28,WSW,240,0.0,14.0,78,0.00,,,0.00,Wunderground v.1.15,2013-01-26 05:54:00,